Tres Ritos, New Mexico
Current Conditions -  °F | °C
As of 3:35 AM on Sunday 26 Oct 2014 (Local Time) from KSKX Reporting Station
Broken Clouds Broken Clouds  
Wind Chill: 36°   Ceiling: 7000
Heat Index: 36°   Visibility: 10mi
Dew Point: 21°   Wind: 3mph
Humidity: 56%   Direction: 360°N
Pressure: 30.23"   Gusts: NA
Location:  36.1892°N, 105.688°W
Report Text: KSKX 260935Z AUTO 36003KT 10SM BKN070 02/M06 A3023 RMK AO1
Loading
Personal Weather Stations






























Interactive Weather Map
Tropical Storm Tracking
New forecast layout! Learn more

10-Day Weather Forecast

Advertisements
Track Severe Weather on mobile